sensor_id;sensor_type;location;lat;lon;timestamp;temperature;humidity
23683;DHT22;24897;53.514;10.482;2022-07-05T00:00:04;14.50;99.90
23683;DHT22;24897;53.514;10.482;2022-07-05T00:02:48;14.40;99.90
23683;DHT22;24897;53.514;10.482;2022-07-05T00:05:32;14.60;99.90
23683;DHT22;24897;53.514;10.482;2022-07-05T00:08:16;14.50;99.90
23683;DHT22;24897;53.514;10.482;2022-07-05T00:11:01;14.50;99.90
23683;DHT22;24897;53.514;10.482;2022-07-05T00:13:45;14.50;99.90
23683;DHT22;24897;53.514;10.482;2022-07-05T00:16:29;14.30;99.90
23683;DHT22;24897;53.514;10.482;2022-07-05T00:19:13;14.50;99.90
23683;DHT22;24897;53.514;10.482;2022-07-05T00:21:57;14.60;99.90
23683;DHT22;24897;53.514;10.482;2022-07-05T00:24:42;14.50;99.90
23683;DHT22;24897;53.514;10.482;2022-07-05T00:27:26;14.50;99.90
23683;DHT22;24897;53.514;10.482;2022-07-05T00:30:10;14.50;99.90
23683;DHT22;24897;53.514;10.482;2022-07-05T00:32:55;14.50;99.90
23683;DHT22;24897;53.514;10.482;2022-07-05T00:35:39;14.50;99.90
23683;DHT22;24897;53.514;10.482;2022-07-05T00:38:23;14.40;99.90
23683;DHT22;24897;53.514;10.482;2022-07-05T00:41:08;14.40;99.90
23683;DHT22;24897;53.514;10.482;2022-07-05T00:43:53;14.40;99.90
23683;DHT22;24897;53.514;10.482;2022-07-05T00:46:38;14.30;99.90
23683;DHT22;24897;53.514;10.482;2022-07-05T00:49:22;14.30;99.90
23683;DHT22;24897;53.514;10.482;2022-07-05T00:52:06;14.30;99.90
23683;DHT22;24897;53.514;10.482;2022-07-05T00:54:50;14.20;99.90
23683;DHT22;24897;53.514;10.482;2022-07-05T00:57:34;14.10;99.90
23683;DHT22;24897;53.514;10.482;2022-07-05T01:00:19;14.10;99.90
23683;DHT22;24897;53.514;10.482;2022-07-05T01:03:04;14.10;99.90
23683;DHT22;24897;53.514;10.482;2022-07-05T01:05:49;14.10;99.90
23683;DHT22;24897;53.514;10.482;2022-07-05T01:08:36;14.00;99.90
23683;DHT22;24897;53.514;10.482;2022-07-05T01:11:20;14.10;99.90
23683;DHT22;24897;53.514;10.482;2022-07-05T01:14:06;14.00;99.90
23683;DHT22;24897;53.514;10.482;2022-07-05T01:16:55;14.00;99.90
23683;DHT22;24897;53.514;10.482;2022-07-05T01:19:39;14.00;99.90
23683;DHT22;24897;53.514;10.482;2022-07-05T01:22:25;14.00;99.90
23683;DHT22;24897;53.514;10.482;2022-07-05T01:25:10;13.90;99.90
23683;DHT22;24897;53.514;10.482;2022-07-05T01:27:55;13.90;99.90
23683;DHT22;24897;53.514;10.482;2022-07-05T01:30:41;13.90;99.90
23683;DHT22;24897;53.514;10.482;2022-07-05T01:33:28;13.90;99.90
23683;DHT22;24897;53.514;10.482;2022-07-05T01:36:13;13.80;99.90
23683;DHT22;24897;53.514;10.482;2022-07-05T01:38:59;13.80;99.90
23683;DHT22;24897;53.514;10.482;2022-07-05T01:41:44;13.80;99.90
23683;DHT22;24897;53.514;10.482;2022-07-05T01:44:28;13.80;99.90
23683;DHT22;24897;53.514;10.482;2022-07-05T01:47:15;13.80;99.90
23683;DHT22;24897;53.514;10.482;2022-07-05T01:50:01;13.80;99.90
23683;DHT22;24897;53.514;10.482;2022-07-05T01:52:46;13.80;99.90
23683;DHT22;24897;53.514;10.482;2022-07-05T01:55:32;13.80;99.90
23683;DHT22;24897;53.514;10.482;2022-07-05T01:58:17;13.70;99.90
23683;DHT22;24897;53.514;10.482;2022-07-05T02:01:01;13.60;99.90
23683;DHT22;24897;53.514;10.482;2022-07-05T02:03:45;13.60;99.90
23683;DHT22;24897;53.514;10.482;2022-07-05T02:06:30;13.60;99.90
23683;DHT22;24897;53.514;10.482;2022-07-05T02:09:16;13.60;99.90
23683;DHT22;24897;53.514;10.482;2022-07-05T02:12:01;13.60;99.90
23683;DHT22;24897;53.514;10.482;2022-07-05T02:14:46;13.60;99.90
23683;DHT22;24897;53.514;10.482;2022-07-05T02:17:30;13.60;99.90
23683;DHT22;24897;53.514;10.482;2022-07-05T02:20:14;13.60;99.90
23683;DHT22;24897;53.514;10.482;2022-07-05T02:22:58;13.70;99.90
23683;DHT22;24897;53.514;10.482;2022-07-05T02:25:42;13.60;99.90
23683;DHT22;24897;53.514;10.482;2022-07-05T02:28:26;13.60;99.90
23683;DHT22;24897;53.514;10.482;2022-07-05T02:31:11;13.60;99.90
23683;DHT22;24897;53.514;10.482;2022-07-05T02:33:55;13.50;99.90
23683;DHT22;24897;53.514;10.482;2022-07-05T02:36:40;13.40;99.90
23683;DHT22;24897;53.514;10.482;2022-07-05T02:39:24;13.50;99.90
23683;DHT22;24897;53.514;10.482;2022-07-05T02:42:08;13.50;99.90
23683;DHT22;24897;53.514;10.482;2022-07-05T02:44:52;13.60;99.90
23683;DHT22;24897;53.514;10.482;2022-07-05T02:47:36;13.50;99.90
23683;DHT22;24897;53.514;10.482;2022-07-05T02:50:20;13.50;99.90
23683;DHT22;24897;53.514;10.482;2022-07-05T02:53:04;13.50;99.90
23683;DHT22;24897;53.514;10.482;2022-07-05T02:55:48;13.50;99.90
23683;DHT22;24897;53.514;10.482;2022-07-05T02:58:32;13.40;99.90
23683;DHT22;24897;53.514;10.482;2022-07-05T03:01:16;13.40;99.90
23683;DHT22;24897;53.514;10.482;2022-07-05T03:04:00;13.40;99.90
23683;DHT22;24897;53.514;10.482;2022-07-05T03:06:44;13.40;99.90
23683;DHT22;24897;53.514;10.482;2022-07-05T03:09:29;13.40;99.90
23683;DHT22;24897;53.514;10.482;2022-07-05T03:12:13;13.40;99.90
23683;DHT22;24897;53.514;10.482;2022-07-05T03:14:57;13.40;99.90
23683;DHT22;24897;53.514;10.482;2022-07-05T03:17:41;13.50;99.90
23683;DHT22;24897;53.514;10.482;2022-07-05T03:20:25;13.40;99.90
23683;DHT22;24897;53.514;10.482;2022-07-05T03:23:09;13.50;99.90
23683;DHT22;24897;53.514;10.482;2022-07-05T03:25:53;13.60;99.90
23683;DHT22;24897;53.514;10.482;2022-07-05T03:28:37;15.20;99.90
23683;DHT22;24897;53.514;10.482;2022-07-05T03:31:21;14.00;99.90
23683;DHT22;24897;53.514;10.482;2022-07-05T03:34:05;14.30;99.90
23683;DHT22;24897;53.514;10.482;2022-07-05T03:36:49;14.60;99.90
23683;DHT22;24897;53.514;10.482;2022-07-05T03:39:33;14.80;99.90
23683;DHT22;24897;53.514;10.482;2022-07-05T03:42:18;15.00;99.90
23683;DHT22;24897;53.514;10.482;2022-07-05T03:45:03;15.30;99.90
23683;DHT22;24897;53.514;10.482;2022-07-05T03:47:47;15.80;99.90
23683;DHT22;24897;53.514;10.482;2022-07-05T03:50:32;16.20;99.90
23683;DHT22;24897;53.514;10.482;2022-07-05T03:53:16;16.60;99.90
23683;DHT22;24897;53.514;10.482;2022-07-05T03:56:01;17.10;99.90
23683;DHT22;24897;53.514;10.482;2022-07-05T03:58:49;17.40;99.90
23683;DHT22;24897;53.514;10.482;2022-07-05T04:01:34;17.70;99.90
23683;DHT22;24897;53.514;10.482;2022-07-05T04:04:18;18.10;99.90
23683;DHT22;24897;53.514;10.482;2022-07-05T04:07:02;18.50;99.90
23683;DHT22;24897;53.514;10.482;2022-07-05T04:09:47;18.80;99.90
23683;DHT22;24897;53.514;10.482;2022-07-05T04:12:31;19.40;99.90
23683;DHT22;24897;53.514;10.482;2022-07-05T04:15:15;19.60;99.90
23683;DHT22;24897;53.514;10.482;2022-07-05T04:18:00;19.30;99.90
23683;DHT22;24897;53.514;10.482;2022-07-05T04:20:44;18.90;99.90
23683;DHT22;24897;53.514;10.482;2022-07-05T04:23:28;18.80;99.90
23683;DHT22;24897;53.514;10.482;2022-07-05T04:26:12;18.80;99.90
23683;DHT22;24897;53.514;10.482;2022-07-05T04:28:56;18.70;99.90
23683;DHT22;24897;53.514;10.482;2022-07-05T04:31:40;18.90;99.90
23683;DHT22;24897;53.514;10.482;2022-07-05T04:34:24;19.40;99.90
23683;DHT22;24897;53.514;10.482;2022-07-05T04:37:08;19.90;99.90
23683;DHT22;24897;53.514;10.482;2022-07-05T04:39:52;20.10;99.90
23683;DHT22;24897;53.514;10.482;2022-07-05T04:42:37;20.00;99.90
23683;DHT22;24897;53.514;10.482;2022-07-05T04:45:21;20.60;99.90
23683;DHT22;24897;53.514;10.482;2022-07-05T04:48:06;20.60;99.90
23683;DHT22;24897;53.514;10.482;2022-07-05T04:50:50;20.90;99.90
23683;DHT22;24897;53.514;10.482;2022-07-05T04:53:34;21.10;99.90
23683;DHT22;24897;53.514;10.482;2022-07-05T04:56:19;21.30;99.90
23683;DHT22;24897;53.514;10.482;2022-07-05T04:59:03;21.90;99.90
23683;DHT22;24897;53.514;10.482;2022-07-05T05:01:47;22.10;99.90
23683;DHT22;24897;53.514;10.482;2022-07-05T05:04:32;22.10;99.90
23683;DHT22;24897;53.514;10.482;2022-07-05T05:07:16;21.10;99.90
23683;DHT22;24897;53.514;10.482;2022-07-05T05:10:00;20.80;99.90
23683;DHT22;24897;53.514;10.482;2022-07-05T05:12:45;21.30;99.90
23683;DHT22;24897;53.514;10.482;2022-07-05T05:15:29;21.30;99.90
23683;DHT22;24897;53.514;10.482;2022-07-05T05:18:13;20.90;99.90
23683;DHT22;24897;53.514;10.482;2022-07-05T05:20:59;20.50;99.90
23683;DHT22;24897;53.514;10.482;2022-07-05T05:23:43;20.10;99.90
23683;DHT22;24897;53.514;10.482;2022-07-05T05:26:27;20.60;99.90
23683;DHT22;24897;53.514;10.482;2022-07-05T05:29:11;20.60;99.90
23683;DHT22;24897;53.514;10.482;2022-07-05T05:31:55;20.60;99.90
23683;DHT22;24897;53.514;10.482;2022-07-05T05:34:39;20.90;99.90
23683;DHT22;24897;53.514;10.482;2022-07-05T05:37:27;21.00;99.90
23683;DHT22;24897;53.514;10.482;2022-07-05T05:40:11;20.90;99.90
23683;DHT22;24897;53.514;10.482;2022-07-05T05:42:56;20.60;99.90
23683;DHT22;24897;53.514;10.482;2022-07-05T05:45:40;20.20;99.90
23683;DHT22;24897;53.514;10.482;2022-07-05T05:48:24;20.30;99.90
23683;DHT22;24897;53.514;10.482;2022-07-05T05:51:09;20.20;99.90
23683;DHT22;24897;53.514;10.482;2022-07-05T05:53:53;20.20;99.90
23683;DHT22;24897;53.514;10.482;2022-07-05T05:56:37;20.30;99.90
23683;DHT22;24897;53.514;10.482;2022-07-05T05:59:22;20.80;99.90
23683;DHT22;24897;53.514;10.482;2022-07-05T06:02:06;21.20;99.90
23683;DHT22;24897;53.514;10.482;2022-07-05T06:04:50;21.30;99.90
23683;DHT22;24897;53.514;10.482;2022-07-05T06:07:50;21.90;99.90
23683;DHT22;24897;53.514;10.482;2022-07-05T06:10:35;21.30;99.90
23683;DHT22;24897;53.514;10.482;2022-07-05T06:13:20;20.30;99.90
23683;DHT22;24897;53.514;10.482;2022-07-05T06:16:06;19.50;99.90
23683;DHT22;24897;53.514;10.482;2022-07-05T06:18:50;20.00;99.90
23683;DHT22;24897;53.514;10.482;2022-07-05T06:21:35;20.40;99.90
23683;DHT22;24897;53.514;10.482;2022-07-05T06:24:20;20.60;99.90
23683;DHT22;24897;53.514;10.482;2022-07-05T06:27:04;20.30;99.90
23683;DHT22;24897;53.514;10.482;2022-07-05T06:29:48;20.70;99.90
23683;DHT22;24897;53.514;10.482;2022-07-05T06:32:32;21.00;99.90
23683;DHT22;24897;53.514;10.482;2022-07-05T06:35:17;21.60;99.90
23683;DHT22;24897;53.514;10.482;2022-07-05T06:38:04;22.10;99.90
23683;DHT22;24897;53.514;10.482;2022-07-05T06:40:48;22.60;99.90
23683;DHT22;24897;53.514;10.482;2022-07-05T06:43:32;22.20;99.90
23683;DHT22;24897;53.514;10.482;2022-07-05T06:46:16;22.40;99.90
23683;DHT22;24897;53.514;10.482;2022-07-05T06:49:00;22.30;99.90
23683;DHT22;24897;53.514;10.482;2022-07-05T06:51:44;22.40;99.90
23683;DHT22;24897;53.514;10.482;2022-07-05T06:54:28;22.20;99.90
23683;DHT22;24897;53.514;10.482;2022-07-05T06:57:12;22.60;99.90
23683;DHT22;24897;53.514;10.482;2022-07-05T06:59:56;23.20;99.90
23683;DHT22;24897;53.514;10.482;2022-07-05T07:02:41;23.70;99.90
23683;DHT22;24897;53.514;10.482;2022-07-05T07:05:26;23.20;99.90
23683;DHT22;24897;53.514;10.482;2022-07-05T07:08:10;23.70;99.90
23683;DHT22;24897;53.514;10.482;2022-07-05T07:11:13;23.40;99.90
23683;DHT22;24897;53.514;10.482;2022-07-05T07:13:58;23.00;99.90
23683;DHT22;24897;53.514;10.482;2022-07-05T07:16:42;22.50;99.90
23683;DHT22;24897;53.514;10.482;2022-07-05T07:19:27;22.20;99.90
23683;DHT22;24897;53.514;10.482;2022-07-05T07:22:11;22.90;99.90
23683;DHT22;24897;53.514;10.482;2022-07-05T07:24:55;23.00;99.90
23683;DHT22;24897;53.514;10.482;2022-07-05T07:27:47;22.80;99.90
23683;DHT22;24897;53.514;10.482;2022-07-05T07:30:32;23.30;99.90
23683;DHT22;24897;53.514;10.482;2022-07-05T07:33:16;23.00;99.90
23683;DHT22;24897;53.514;10.482;2022-07-05T07:36:00;22.80;99.90
23683;DHT22;24897;53.514;10.482;2022-07-05T07:38:44;21.90;99.90
23683;DHT22;24897;53.514;10.482;2022-07-05T07:41:28;20.70;99.90
23683;DHT22;24897;53.514;10.482;2022-07-05T07:44:12;20.90;99.90
23683;DHT22;24897;53.514;10.482;2022-07-05T07:46:56;21.40;99.90
23683;DHT22;24897;53.514;10.482;2022-07-05T07:49:40;20.60;99.90
23683;DHT22;24897;53.514;10.482;2022-07-05T07:52:25;20.10;99.90
23683;DHT22;24897;53.514;10.482;2022-07-05T07:55:10;19.90;99.90
23683;DHT22;24897;53.514;10.482;2022-07-05T07:57:54;20.20;99.90
23683;DHT22;24897;53.514;10.482;2022-07-05T08:00:38;20.90;99.90
23683;DHT22;24897;53.514;10.482;2022-07-05T08:03:22;20.90;99.90
23683;DHT22;24897;53.514;10.482;2022-07-05T08:06:08;20.40;99.90
23683;DHT22;24897;53.514;10.482;2022-07-05T08:08:52;20.30;99.90
23683;DHT22;24897;53.514;10.482;2022-07-05T08:11:36;20.90;99.90
23683;DHT22;24897;53.514;10.482;2022-07-05T08:14:20;21.40;99.90
23683;DHT22;24897;53.514;10.482;2022-07-05T08:17:05;21.30;99.90
23683;DHT22;24897;53.514;10.482;2022-07-05T08:19:52;22.00;99.90
23683;DHT22;24897;53.514;10.482;2022-07-05T08:22:55;21.50;99.90
23683;DHT22;24897;53.514;10.482;2022-07-05T08:25:39;20.80;99.90
23683;DHT22;24897;53.514;10.482;2022-07-05T08:28:23;20.30;99.90
23683;DHT22;24897;53.514;10.482;2022-07-05T08:31:10;20.90;99.90
23683;DHT22;24897;53.514;10.482;2022-07-05T08:33:54;21.80;99.90
23683;DHT22;24897;53.514;10.482;2022-07-05T08:36:39;22.00;99.90
23683;DHT22;24897;53.514;10.482;2022-07-05T08:39:26;21.90;99.90
23683;DHT22;24897;53.514;10.482;2022-07-05T08:42:11;22.00;99.90
23683;DHT22;24897;53.514;10.482;2022-07-05T08:44:58;21.30;99.90
23683;DHT22;24897;53.514;10.482;2022-07-05T08:47:43;21.90;99.90
23683;DHT22;24897;53.514;10.482;2022-07-05T08:50:29;21.90;99.90
23683;DHT22;24897;53.514;10.482;2022-07-05T08:53:21;22.20;99.90
23683;DHT22;24897;53.514;10.482;2022-07-05T08:56:07;21.90;99.90
23683;DHT22;24897;53.514;10.482;2022-07-05T08:58:52;22.30;99.90
23683;DHT22;24897;53.514;10.482;2022-07-05T09:01:37;21.80;99.90
23683;DHT22;24897;53.514;10.482;2022-07-05T09:04:23;21.10;99.90
23683;DHT22;24897;53.514;10.482;2022-07-05T09:07:10;21.00;99.90
23683;DHT22;24897;53.514;10.482;2022-07-05T09:10:00;20.70;99.90
23683;DHT22;24897;53.514;10.482;2022-07-05T09:12:45;20.50;99.90
23683;DHT22;24897;53.514;10.482;2022-07-05T09:15:29;20.30;99.90
23683;DHT22;24897;53.514;10.482;2022-07-05T09:18:38;20.10;99.90
23683;DHT22;24897;53.514;10.482;2022-07-05T09:21:25;20.00;99.90
23683;DHT22;24897;53.514;10.482;2022-07-05T09:24:10;20.50;99.90
23683;DHT22;24897;53.514;10.482;2022-07-05T09:27:02;21.20;99.90
23683;DHT22;24897;53.514;10.482;2022-07-05T09:29:54;21.90;99.90
23683;DHT22;24897;53.514;10.482;2022-07-05T09:32:40;22.50;99.90
23683;DHT22;24897;53.514;10.482;2022-07-05T09:35:24;22.40;99.90
23683;DHT22;24897;53.514;10.482;2022-07-05T09:38:19;22.20;99.90
23683;DHT22;24897;53.514;10.482;2022-07-05T09:41:11;22.60;99.90
23683;DHT22;24897;53.514;10.482;2022-07-05T09:43:56;22.60;99.90
23683;DHT22;24897;53.514;10.482;2022-07-05T09:46:40;22.00;99.90
23683;DHT22;24897;53.514;10.482;2022-07-05T09:49:25;21.70;99.90
23683;DHT22;24897;53.514;10.482;2022-07-05T09:52:11;22.30;99.90
23683;DHT22;24897;53.514;10.482;2022-07-05T09:55:16;23.20;99.90
23683;DHT22;24897;53.514;10.482;2022-07-05T09:58:02;23.10;99.90
23683;DHT22;24897;53.514;10.482;2022-07-05T10:00:46;23.60;99.90
23683;DHT22;24897;53.514;10.482;2022-07-05T10:03:30;24.20;99.90
23683;DHT22;24897;53.514;10.482;2022-07-05T10:06:14;23.90;99.90
23683;DHT22;24897;53.514;10.482;2022-07-05T10:08:59;24.10;99.90
23683;DHT22;24897;53.514;10.482;2022-07-05T10:11:44;23.20;99.90
23683;DHT22;24897;53.514;10.482;2022-07-05T10:14:29;22.60;99.90
23683;DHT22;24897;53.514;10.482;2022-07-05T10:17:13;22.30;99.90
23683;DHT22;24897;53.514;10.482;2022-07-05T10:19:58;22.00;99.90
23683;DHT22;24897;53.514;10.482;2022-07-05T10:22:43;21.90;99.90
23683;DHT22;24897;53.514;10.482;2022-07-05T10:25:28;21.70;99.90
23683;DHT22;24897;53.514;10.482;2022-07-05T10:28:13;21.80;99.90
23683;DHT22;24897;53.514;10.482;2022-07-05T10:30:59;22.00;99.90
23683;DHT22;24897;53.514;10.482;2022-07-05T10:33:44;21.90;99.90
23683;DHT22;24897;53.514;10.482;2022-07-05T10:36:29;22.30;99.90
23683;DHT22;24897;53.514;10.482;2022-07-05T10:39:14;22.70;99.90
23683;DHT22;24897;53.514;10.482;2022-07-05T10:41:59;23.00;99.90
23683;DHT22;24897;53.514;10.482;2022-07-05T10:44:43;23.20;99.90
23683;DHT22;24897;53.514;10.482;2022-07-05T10:47:27;23.00;99.90
23683;DHT22;24897;53.514;10.482;2022-07-05T10:50:13;23.50;99.90
23683;DHT22;24897;53.514;10.482;2022-07-05T10:53:02;24.10;99.90
23683;DHT22;24897;53.514;10.482;2022-07-05T10:56:33;24.40;99.90
23683;DHT22;24897;53.514;10.482;2022-07-05T10:59:06;24.60;99.90
23683;DHT22;24897;53.514;10.482;2022-07-05T11:02:12;24.60;99.90
23683;DHT22;24897;53.514;10.482;2022-07-05T11:04:56;25.10;99.90
23683;DHT22;24897;53.514;10.482;2022-07-05T11:08:00;25.10;99.90
23683;DHT22;24897;53.514;10.482;2022-07-05T11:11:08;23.90;99.90
23683;DHT22;24897;53.514;10.482;2022-07-05T11:13:53;23.70;99.90
23683;DHT22;24897;53.514;10.482;2022-07-05T11:16:42;23.30;99.90
23683;DHT22;24897;53.514;10.482;2022-07-05T11:19:26;22.50;99.90
23683;DHT22;24897;53.514;10.482;2022-07-05T11:22:10;22.80;99.90
23683;DHT22;24897;53.514;10.482;2022-07-05T11:24:57;23.70;99.90
23683;DHT22;24897;53.514;10.482;2022-07-05T11:28:04;24.10;99.90
23683;DHT22;24897;53.514;10.482;2022-07-05T11:30:53;24.20;99.90
23683;DHT22;24897;53.514;10.482;2022-07-05T11:33:41;23.90;99.90
23683;DHT22;24897;53.514;10.482;2022-07-05T11:36:29;23.70;99.90
23683;DHT22;24897;53.514;10.482;2022-07-05T11:39:16;24.40;99.90
23683;DHT22;24897;53.514;10.482;2022-07-05T11:42:01;24.60;99.90
23683;DHT22;24897;53.514;10.482;2022-07-05T11:44:49;24.80;99.90
23683;DHT22;24897;53.514;10.482;2022-07-05T11:47:34;24.50;99.90
23683;DHT22;24897;53.514;10.482;2022-07-05T11:50:26;24.00;99.90
23683;DHT22;24897;53.514;10.482;2022-07-05T11:53:11;24.20;99.90
23683;DHT22;24897;53.514;10.482;2022-07-05T11:55:58;24.10;99.90
23683;DHT22;24897;53.514;10.482;2022-07-05T11:58:42;23.80;99.90
23683;DHT22;24897;53.514;10.482;2022-07-05T12:01:26;22.90;99.90
23683;DHT22;24897;53.514;10.482;2022-07-05T12:04:10;22.90;99.90
23683;DHT22;24897;53.514;10.482;2022-07-05T12:06:55;22.80;99.90
23683;DHT22;24897;53.514;10.482;2022-07-05T12:09:40;22.50;99.90
23683;DHT22;24897;53.514;10.482;2022-07-05T12:12:43;22.80;99.90
23683;DHT22;24897;53.514;10.482;2022-07-05T12:15:28;23.10;99.90
23683;DHT22;24897;53.514;10.482;2022-07-05T12:18:12;22.90;99.90
23683;DHT22;24897;53.514;10.482;2022-07-05T12:20:58;22.90;99.90
23683;DHT22;24897;53.514;10.482;2022-07-05T12:23:43;23.30;99.90
23683;DHT22;24897;53.514;10.482;2022-07-05T12:26:29;23.30;99.90
23683;DHT22;24897;53.514;10.482;2022-07-05T12:29:14;23.30;99.90
23683;DHT22;24897;53.514;10.482;2022-07-05T12:32:04;23.00;99.90
23683;DHT22;24897;53.514;10.482;2022-07-05T12:34:52;22.50;99.90
23683;DHT22;24897;53.514;10.482;2022-07-05T12:37:37;22.50;99.90
23683;DHT22;24897;53.514;10.482;2022-07-05T12:40:27;23.40;99.90
23683;DHT22;24897;53.514;10.482;2022-07-05T12:43:17;24.20;99.90
23683;DHT22;24897;53.514;10.482;2022-07-05T12:46:04;24.20;99.90
23683;DHT22;24897;53.514;10.482;2022-07-05T12:48:53;24.10;99.90
23683;DHT22;24897;53.514;10.482;2022-07-05T12:51:40;23.70;99.90
23683;DHT22;24897;53.514;10.482;2022-07-05T12:54:24;23.40;99.90
23683;DHT22;24897;53.514;10.482;2022-07-05T12:57:27;23.50;99.90
23683;DHT22;24897;53.514;10.482;2022-07-05T13:00:30;23.50;99.90
23683;DHT22;24897;53.514;10.482;2022-07-05T13:03:14;22.90;99.90
23683;DHT22;24897;53.514;10.482;2022-07-05T13:06:01;23.40;99.90
23683;DHT22;24897;53.514;10.482;2022-07-05T13:08:56;23.90;99.90
23683;DHT22;24897;53.514;10.482;2022-07-05T13:11:42;23.70;99.90
23683;DHT22;24897;53.514;10.482;2022-07-05T13:14:26;23.30;99.90
23683;DHT22;24897;53.514;10.482;2022-07-05T13:17:11;23.10;99.90
23683;DHT22;24897;53.514;10.482;2022-07-05T13:19:56;23.20;99.90
23683;DHT22;24897;53.514;10.482;2022-07-05T13:22:41;23.60;99.90
23683;DHT22;24897;53.514;10.482;2022-07-05T13:25:25;23.60;99.90
23683;DHT22;24897;53.514;10.482;2022-07-05T13:28:09;23.20;99.90
23683;DHT22;24897;53.514;10.482;2022-07-05T13:30:56;22.70;99.90
23683;DHT22;24897;53.514;10.482;2022-07-05T13:33:41;22.70;99.90
23683;DHT22;24897;53.514;10.482;2022-07-05T13:36:26;23.20;99.90
23683;DHT22;24897;53.514;10.482;2022-07-05T13:39:11;23.40;99.90
23683;DHT22;24897;53.514;10.482;2022-07-05T13:41:57;23.40;99.90
23683;DHT22;24897;53.514;10.482;2022-07-05T13:44:41;23.10;99.90
23683;DHT22;24897;53.514;10.482;2022-07-05T13:47:26;22.90;99.90
23683;DHT22;24897;53.514;10.482;2022-07-05T13:50:09;23.20;99.90
23683;DHT22;24897;53.514;10.482;2022-07-05T13:53:13;23.40;99.90
23683;DHT22;24897;53.514;10.482;2022-07-05T13:55:57;23.50;99.90
23683;DHT22;24897;53.514;10.482;2022-07-05T13:58:41;23.80;99.90
23683;DHT22;24897;53.514;10.482;2022-07-05T14:01:26;23.90;99.90
23683;DHT22;24897;53.514;10.482;2022-07-05T14:04:14;23.80;99.90
23683;DHT22;24897;53.514;10.482;2022-07-05T14:06:59;23.60;99.90
23683;DHT22;24897;53.514;10.482;2022-07-05T14:09:43;23.40;99.90
23683;DHT22;24897;53.514;10.482;2022-07-05T14:12:28;23.30;99.90
23683;DHT22;24897;53.514;10.482;2022-07-05T14:15:12;23.00;99.90
23683;DHT22;24897;53.514;10.482;2022-07-05T14:17:56;22.90;99.90
23683;DHT22;24897;53.514;10.482;2022-07-05T14:20:44;22.80;99.90
23683;DHT22;24897;53.514;10.482;2022-07-05T14:23:28;22.60;99.90
23683;DHT22;24897;53.514;10.482;2022-07-05T14:26:16;22.50;99.90
23683;DHT22;24897;53.514;10.482;2022-07-05T14:29:00;22.10;99.90
23683;DHT22;24897;53.514;10.482;2022-07-05T14:31:45;21.80;99.90
23683;DHT22;24897;53.514;10.482;2022-07-05T14:34:29;21.60;99.90
23683;DHT22;24897;53.514;10.482;2022-07-05T14:37:13;21.60;99.90
23683;DHT22;24897;53.514;10.482;2022-07-05T14:39:58;21.70;99.90
23683;DHT22;24897;53.514;10.482;2022-07-05T14:42:42;21.80;99.90
23683;DHT22;24897;53.514;10.482;2022-07-05T14:45:27;22.10;99.90
23683;DHT22;24897;53.514;10.482;2022-07-05T14:48:12;22.30;99.90
23683;DHT22;24897;53.514;10.482;2022-07-05T14:50:56;22.30;99.90
23683;DHT22;24897;53.514;10.482;2022-07-05T14:53:40;22.30;99.90
23683;DHT22;24897;53.514;10.482;2022-07-05T14:56:30;22.50;99.90
23683;DHT22;24897;53.514;10.482;2022-07-05T14:59:14;22.80;99.90
23683;DHT22;24897;53.514;10.482;2022-07-05T15:01:58;23.10;99.90
23683;DHT22;24897;53.514;10.482;2022-07-05T15:04:42;23.00;99.90
23683;DHT22;24897;53.514;10.482;2022-07-05T15:07:27;22.90;99.90
23683;DHT22;24897;53.514;10.482;2022-07-05T15:10:12;22.70;99.90
23683;DHT22;24897;53.514;10.482;2022-07-05T15:12:56;22.50;99.90
23683;DHT22;24897;53.514;10.482;2022-07-05T15:15:40;22.40;99.90
23683;DHT22;24897;53.514;10.482;2022-07-05T15:18:25;22.40;99.90
23683;DHT22;24897;53.514;10.482;2022-07-05T15:21:09;22.70;99.90
23683;DHT22;24897;53.514;10.482;2022-07-05T15:23:54;23.20;99.90
23683;DHT22;24897;53.514;10.482;2022-07-05T15:26:40;23.70;99.90
23683;DHT22;24897;53.514;10.482;2022-07-05T15:29:25;24.00;99.90
23683;DHT22;24897;53.514;10.482;2022-07-05T15:32:10;23.70;99.90
23683;DHT22;24897;53.514;10.482;2022-07-05T15:34:55;23.50;99.90
23683;DHT22;24897;53.514;10.482;2022-07-05T15:37:39;23.50;99.90
23683;DHT22;24897;53.514;10.482;2022-07-05T15:40:24;23.30;99.90
23683;DHT22;24897;53.514;10.482;2022-07-05T15:43:08;23.20;99.90
23683;DHT22;24897;53.514;10.482;2022-07-05T15:45:52;23.30;99.90
23683;DHT22;24897;53.514;10.482;2022-07-05T15:48:39;23.40;99.90
23683;DHT22;24897;53.514;10.482;2022-07-05T15:51:24;23.60;99.90
23683;DHT22;24897;53.514;10.482;2022-07-05T15:54:08;23.70;99.90
23683;DHT22;24897;53.514;10.482;2022-07-05T15:56:53;23.70;99.90
23683;DHT22;24897;53.514;10.482;2022-07-05T15:59:38;23.50;99.90
23683;DHT22;24897;53.514;10.482;2022-07-05T16:02:23;23.50;99.90
23683;DHT22;24897;53.514;10.482;2022-07-05T16:05:07;23.40;99.90
23683;DHT22;24897;53.514;10.482;2022-07-05T16:07:51;23.30;99.90
23683;DHT22;24897;53.514;10.482;2022-07-05T16:10:36;23.20;99.90
23683;DHT22;24897;53.514;10.482;2022-07-05T16:13:20;23.30;99.90
23683;DHT22;24897;53.514;10.482;2022-07-05T16:16:04;23.20;99.90
23683;DHT22;24897;53.514;10.482;2022-07-05T16:18:54;23.30;99.90
23683;DHT22;24897;53.514;10.482;2022-07-05T16:21:39;23.20;99.90
23683;DHT22;24897;53.514;10.482;2022-07-05T16:24:23;22.70;99.90
23683;DHT22;24897;53.514;10.482;2022-07-05T16:27:07;22.50;99.90
23683;DHT22;24897;53.514;10.482;2022-07-05T16:29:52;22.40;99.90
23683;DHT22;24897;53.514;10.482;2022-07-05T16:32:36;22.20;99.90
23683;DHT22;24897;53.514;10.482;2022-07-05T16:35:20;21.80;99.90
23683;DHT22;24897;53.514;10.482;2022-07-05T16:38:04;21.50;99.90
23683;DHT22;24897;53.514;10.482;2022-07-05T16:40:48;21.50;99.90
23683;DHT22;24897;53.514;10.482;2022-07-05T16:43:35;21.80;99.90
23683;DHT22;24897;53.514;10.482;2022-07-05T16:46:23;21.80;99.90
23683;DHT22;24897;53.514;10.482;2022-07-05T16:49:10;21.90;99.90
23683;DHT22;24897;53.514;10.482;2022-07-05T16:51:54;21.90;99.90
23683;DHT22;24897;53.514;10.482;2022-07-05T16:54:39;22.00;99.90
23683;DHT22;24897;53.514;10.482;2022-07-05T16:57:23;22.10;99.90
23683;DHT22;24897;53.514;10.482;2022-07-05T17:00:08;21.70;99.90
23683;DHT22;24897;53.514;10.482;2022-07-05T17:02:52;21.40;99.90
23683;DHT22;24897;53.514;10.482;2022-07-05T17:05:36;21.40;99.90
23683;DHT22;24897;53.514;10.482;2022-07-05T17:08:20;21.50;99.90